KRYY

Cobb County International-McCollum Field Airport

Atlanta, Georgia, USA
METAR KRYY 191648Z 21005KT 10SM SCT010 OVC031 24/23 A3005 RMK AO2 SLP895 T02390228
Observed Flight Rules
Aug-19 @ 16:48 UTC (25 minutes ago) Visual Flight Rules
Wind Visibility Clouds
210° at 5 knots 10 miles
  • Scattered at 1,000' AGL
  • Overcast at 3,100' AGL
Temperatures Readings
Current 24°C / 75°F
Dewpoint 23°C / 73°F
Humidity 94%
Altimeter 30.05" Hg
Pressure 989.5 hPa
Elevation 317
METAR KRYY 191648Z 21005KT 10SM SCT010 OVC031 24/23 A3005 RMK AO2 SLP895 T02390228
Observed Flight Rules
Aug-19 @ 16:48 UTC
(25 minutes ago)
VFR
Wind Visibility
210° at 5 knots 10 miles
Clouds
  • Scattered at 1,000' AGL
  • Overcast at 3,100' AGL
Temperature Dewpoint
24°C / 75°F 23°C / 73°F
Humidity Altimeter Pressure
94% 30.05" Hg 989.5 hPa